To NAV CANADA Home Page Login to a new session Search on AWWS site Feedback and Comments Disclaimer Vers la page française équivalente Tips FAQ What's new on the site To the Forecasts and Observations / NOTAM section To "File a Flight Plan" website Publications and other links Update of the User's profile FIC Telephone Numbers My Weather Data Folder Route Weather Data Regional Weather Data Local Weather Data To the Forecasts and Observations / NOTAM section
Request Generated 01/17/2017 at 04:57:38 UTC . Weather information available at that time is displayed.

METAR/TAF

KINGSTON/ON    

METAR CYGK 170400Z 21002KT 10SM FEW250 M03/M04 A3023 RMK CI2 LAST
STFD OBS / NEXT 171100 UTC SLP242=
METAR CYGK 170300Z 00000KT 10SM FEW250 M03/M04 A3024 RMK CI2 SLP246=
METAR CYGK 170200Z 22005KT 10SM OVC250 M02/M03 A3024 RMK CS8 SLP247=

*** REMARK        : Forecast period has ended; this was the last TAF issued
*** REMARQUE : La période de prévision est échue; ceci était le dernier TAF qui a été émis
TAF CYGK 170138Z 1702/1704 23005KT P6SM OVC250 TEMPO 1702/1704
VRB03KT
RMK NXT FCST WILL BE ISSUED AT 171245Z=
Your time UTC time
Weather data provided by Environment Canada and NAV CANADA